Time;durP1;ratioP1;P1;durP2;ratioP2;P2;SDS_P1;SDS_P2;PMS_P1;PMS_P2;Temp;Humidity;BMP_temperature;BMP_pressure;BME280_temperature;BME280_humidity;BME280_pressure;Samples;Min_cycle;Max_cycle;Signal;HPM_P1;HPM_P2
2021/03/08 00:00:25;;;;;;;;;;;;;;;-2.99;91.40;93147.13;1421569;39;20195;31
2021/03/08 00:01:28;;;;;;;;;;;;;;;-3.04;91.65;93145.50;1432294;39;21137;31
2021/03/08 00:02:33;;;;;;;;;;;;;;;-3.02;90.78;93140.72;1430055;39;21605;31
2021/03/08 00:03:37;;;;;;;;;;;;;;;-2.96;91.69;93146.47;1426564;39;20304;31
2021/03/08 00:04:41;;;;;;;;;;;;;;;-3.02;91.05;93145.19;1432854;39;20219;31
2021/03/08 00:07:51;;;;;;;;;;;;;;;-3.08;92.33;93145.38;1441117;39;22731;31
2021/03/08 00:08:55;;;;;;;;;;;;;;;-3.01;91.62;93144.84;1429835;39;20828;31
2021/03/08 00:09:59;;;;;;;;;;;;;;;-3.07;91.25;93141.72;1427713;39;20254;31
2021/03/08 00:11:03;;;;;;;;;;;;;;;-3.11;91.81;93143.47;1430589;39;20230;31
2021/03/08 00:12:08;;;;;;;;;;;;;;;-3.12;92.04;93138.53;1423604;39;21158;31
2021/03/08 00:13:12;;;;;;;;;;;;;;;-3.16;92.01;93140.28;1421691;39;21156;-86
2021/03/08 00:17:25;;;;;;;;;;;;;;;-3.13;91.46;93147.47;1409415;39;20107;31
2021/03/08 00:21:40;;;;;;;;;;;;;;;-3.35;91.34;93152.06;1441479;39;20250;31
2021/03/08 00:22:44;;;;;;;;;;;;;;;-3.34;91.48;93142.38;1436453;39;20262;31
2021/03/08 00:23:48;;;;;;;;;;;;;;;-3.37;91.27;93146.41;1433885;39;21169;31
2021/03/08 00:24:52;;;;;;;;;;;;;;;-3.38;91.41;93144.91;1429862;39;21235;31
2021/03/08 00:25:53;;;;;;;;;;;;;;;-3.37;91.26;93145.66;1439013;39;20336;31
2021/03/08 00:27:07;;;;;;;;;;;;;;;-3.41;91.35;93140.31;1434057;39;22539;31
2021/03/08 00:28:11;;;;;;;;;;;;;;;-3.36;90.65;93141.94;1423972;39;20634;31
2021/03/08 00:30:17;;;;;;;;;;;;;;;-3.43;90.29;93141.72;1426124;39;20223;31
2021/03/08 00:31:20;;;;;;;;;;;;;;;-3.48;91.45;93141.94;1431125;39;20234;31
2021/03/08 00:32:34;;;;;;;;;;;;;;;-3.42;91.20;93140.66;1437553;39;20214;31
2021/03/08 00:33:48;;;;;;;;;;;;;;;-3.49;90.79;93140.41;1428181;39;20236;31
2021/03/08 00:34:52;;;;;;;;;;;;;;;-3.51;91.74;93143.38;1417238;39;21244;31
2021/03/08 00:35:56;;;;;;;;;;;;;;;-3.47;91.99;93146.06;1432456;39;21258;31
2021/03/08 00:37:00;;;;;;;;;;;;;;;-3.40;91.35;93151.53;1422115;39;21114;31
2021/03/08 00:38:14;;;;;;;;;;;;;;;-3.42;90.52;93140.66;1430947;39;20318;31
2021/03/08 00:39:18;;;;;;;;;;;;;;;-3.42;90.02;93148.50;1425556;39;20250;31
2021/03/08 00:40:22;;;;;;;;;;;;;;;-3.51;90.10;93150.41;1419446;39;20370;31
2021/03/08 00:41:26;;;;;;;;;;;;;;;-3.58;90.72;93153.59;1430488;39;20682;31
2021/03/08 00:42:28;;;;;;;;;;;;;;;-3.61;91.45;93147.16;1427179;39;20206;31
2021/03/08 00:44:35;;;;;;;;;;;;;;;-3.62;91.14;93147.50;1439540;39;20210;31
2021/03/08 00:45:41;;;;;;;;;;;;;;;-3.64;90.99;93149.66;1436962;39;20409;31
2021/03/08 00:46:44;;;;;;;;;;;;;;;-3.55;91.04;93142.50;1429187;39;20202;31
2021/03/08 00:47:48;;;;;;;;;;;;;;;-3.51;90.79;93140.75;1435234;39;21141;31
2021/03/08 00:48:52;;;;;;;;;;;;;;;-3.62;90.76;93137.78;1422894;39;20210;31
2021/03/08 00:49:54;;;;;;;;;;;;;;;-3.63;91.57;93136.28;1428601;39;20334;31
2021/03/08 00:50:58;;;;;;;;;;;;;;;-3.60;91.11;93135.63;1421762;39;20254;31
2021/03/08 00:53:03;;;;;;;;;;;;;;;-3.65;91.72;93135.06;1444453;39;20194;31
2021/03/08 00:55:12;;;;;;;;;;;;;;;-3.69;90.76;93134.94;1421675;39;21105;31
2021/03/08 00:56:15;;;;;;;;;;;;;;;-3.69;90.78;93145.41;1427432;39;20216;31
2021/03/08 00:58:22;;;;;;;;;;;;;;;-3.70;91.12;93137.91;1445230;39;20225;31
2021/03/08 00:59:24;;;;;;;;;;;;;;;-3.72;91.12;93135.63;1427916;39;20629;31
2021/03/08 01:00:29;;;;;;;;;;;;;;;-3.71;90.41;93136.38;1421423;39;21219;31
2021/03/08 01:01:32;;;;;;;;;;;;;;;-3.62;89.74;93132.56;1431395;39;22574;31
2021/03/08 01:02:34;;;;;;;;;;;;;;;-3.64;89.31;93132.16;1427337;39;20203;31
2021/03/08 01:03:38;;;;;;;;;;;;;;;-3.67;88.68;93132.03;1429332;39;20254;31
2021/03/08 01:04:42;;;;;;;;;;;;;;;-3.57;89.42;93127.13;1432966;39;20237;31
2021/03/08 01:06:51;;;;;;;;;;;;;;;-3.71;88.97;93141.59;1446999;39;20242;31
2021/03/08 01:07:55;;;;;;;;;;;;;;;-3.68;89.81;93138.34;1428204;39;20266;31
2021/03/08 01:08:59;;;;;;;;;;;;;;;-3.76;89.70;93134.75;1422496;39;20243;31
2021/03/08 01:10:04;;;;;;;;;;;;;;;-3.85;90.38;93131.47;1441357;39;21159;31
2021/03/08 01:12:12;;;;;;;;;;;;;;;-3.81;90.35;93127.88;1437810;39;22254;31
2021/03/08 01:13:16;;;;;;;;;;;;;;;-3.88;90.64;93127.66;1427494;39;22750;31
2021/03/08 01:14:20;;;;;;;;;;;;;;;-3.99;91.76;93121.34;1422757;39;20245;31
2021/03/08 01:18:34;;;;;;;;;;;;;;;-4.03;90.56;93122.31;1432949;39;21259;31
2021/03/08 01:19:40;;;;;;;;;;;;;;;-4.01;90.93;93130.56;1427553;39;20281;31
2021/03/08 01:20:44;;;;;;;;;;;;;;;-3.93;91.09;93120.03;1429635;39;20435;31
2021/03/08 01:21:50;;;;;;;;;;;;;;;-3.84;90.01;93122.53;1427101;39;21116;31
2021/03/08 01:22:53;;;;;;;;;;;;;;;-3.93;90.01;93124.50;1411181;40;20249;31
2021/03/08 01:23:54;;;;;;;;;;;;;;;-3.96;90.54;93120.66;1413130;39;20200;31
2021/03/08 01:24:57;;;;;;;;;;;;;;;-3.93;90.22;93125.25;1412416;39;20266;31
2021/03/08 01:26:10;;;;;;;;;;;;;;;-4.02;91.06;93123.81;1417846;39;20279;31
2021/03/08 01:27:12;;;;;;;;;;;;;;;-4.07;91.44;93124.81;1419962;39;20313;31
2021/03/08 01:29:17;;;;;;;;;;;;;;;-3.90;90.69;93131.69;1431639;39;20314;31
2021/03/08 01:30:23;;;;;;;;;;;;;;;-3.96;90.35;93127.75;1425413;39;20246;31
2021/03/08 01:31:26;;;;;;;;;;;;;;;-4.04;89.85;93131.97;1422563;39;20309;31
2021/03/08 01:32:30;;;;;;;;;;;;;;;-4.08;90.33;93133.72;1421839;39;20227;31
2021/03/08 01:33:34;;;;;;;;;;;;;;;-4.16;90.73;93130.09;1427778;39;20229;31
2021/03/08 01:34:38;;;;;;;;;;;;;;;-4.02;89.65;93129.06;1424408;39;20304;31
2021/03/08 01:35:42;;;;;;;;;;;;;;;-4.09;89.38;93125.09;1427558;39;20227;31
2021/03/08 01:36:46;;;;;;;;;;;;;;;-4.11;89.59;93122.06;1432180;39;21164;31
2021/03/08 01:37:50;;;;;;;;;;;;;;;-4.09;89.31;93117.28;1429227;39;20254;31
2021/03/08 01:38:54;;;;;;;;;;;;;;;-4.10;89.55;93110.53;1434119;39;20512;31
2021/03/08 01:39:59;;;;;;;;;;;;;;;-4.17;90.11;93123.38;1421535;39;20209;31
2021/03/08 01:41:02;;;;;;;;;;;;;;;-4.18;90.16;93114.00;1433646;39;22815;31
2021/03/08 01:42:07;;;;;;;;;;;;;;;-4.15;90.84;93112.59;1429809;39;20227;31
2021/03/08 01:43:12;;;;;;;;;;;;;;;-4.20;90.43;93118.78;1426367;39;21819;31
2021/03/08 01:44:17;;;;;;;;;;;;;;;-4.19;90.79;93115.09;1423689;39;21057;31
2021/03/08 01:45:31;;;;;;;;;;;;;;;-4.13;90.30;93111.19;1429683;39;20565;31
2021/03/08 01:46:35;;;;;;;;;;;;;;;-4.14;90.27;93112.25;1421364;39;21671;31
2021/03/08 01:49:47;;;;;;;;;;;;;;;-4.25;90.59;93102.59;1441325;39;21211;31
2021/03/08 01:54:02;;;;;;;;;;;;;;;-4.30;90.56;93100.94;1448406;39;21137;31
2021/03/08 01:57:10;;;;;;;;;;;;;;;-4.36;90.64;93089.16;1441111;39;20695;31
2021/03/08 01:58:15;;;;;;;;;;;;;;;-4.33;90.73;93102.34;1428161;39;21128;31
2021/03/08 01:59:20;;;;;;;;;;;;;;;-4.28;89.72;93090.94;1428683;39;21183;31
2021/03/08 02:00:25;;;;;;;;;;;;;;;-4.35;89.62;93101.88;1432370;39;20251;31
2021/03/08 02:01:29;;;;;;;;;;;;;;;-4.37;89.26;93095.47;1428206;39;21052;31
2021/03/08 02:03:48;;;;;;;;;;;;;;;-4.41;89.55;93095.34;1437501;39;20282;31
2021/03/08 02:04:52;;;;;;;;;;;;;;;-4.39;89.44;93098.41;1424812;39;21313;31
2021/03/08 02:05:57;;;;;;;;;;;;;;;-4.42;89.55;93100.91;1429117;39;21334;31
2021/03/08 02:07:01;;;;;;;;;;;;;;;-4.50;90.22;93099.91;1420538;39;20223;31
2021/03/08 02:13:35;;;;;;;;;;;;;;;-4.46;90.69;93095.56;1421677;39;21124;31
2021/03/08 02:14:58;;;;;;;;;;;;;;;-4.51;89.80;93089.78;1417353;39;20247;31
2021/03/08 02:16:01;;;;;;;;;;;;;;;-4.54;89.64;93090.44;1409379;40;20224;31
2021/03/08 02:18:12;;;;;;;;;;;;;;;-4.40;89.51;93090.91;1417035;39;21314;31
2021/03/08 02:19:34;;;;;;;;;;;;;;;-4.36;89.05;93083.94;1426948;39;22709;31
2021/03/08 02:20:49;;;;;;;;;;;;;;;-4.42;89.12;93085.25;1433450;39;22350;31
2021/03/08 02:24:17;;;;;;;;;;;;;;;-4.47;89.09;93078.41;1441433;39;20231;31
2021/03/08 02:25:55;;;;;;;;;;;;;;;-4.61;89.44;93078.69;1428914;39;20254;31
2021/03/08 02:27:08;;;;;;;;;;;;;;;-4.65;89.83;93074.44;1424253;39;21281;31
2021/03/08 02:28:16;;;;;;;;;;;;;;;-4.68;90.49;93086.25;1448896;39;20208;31
2021/03/08 02:29:30;;;;;;;;;;;;;;;-4.69;91.01;93079.53;1434238;39;21327;31
2021/03/08 02:32:45;;;;;;;;;;;;;;;-4.77;89.31;93080.34;1446535;39;21162;31
2021/03/08 02:33:57;;;;;;;;;;;;;;;-4.75;89.64;93074.81;1436353;39;20375;31
2021/03/08 02:35:11;;;;;;;;;;;;;;;-4.73;89.74;93072.66;1421290;39;21158;31
2021/03/08 02:36:16;;;;;;;;;;;;;;;-4.77;90.06;93077.00;1432234;39;20313;31
2021/03/08 02:38:34;;;;;;;;;;;;;;;-4.84;90.37;93065.22;1431671;39;20915;31
2021/03/08 02:39:40;;;;;;;;;;;;;;;-4.82;90.40;93072.75;1438482;39;39792;31
2021/03/08 02:41:07;;;;;;;;;;;;;;;-4.87;90.19;93073.69;1412789;39;21268;31
2021/03/08 02:42:16;;;;;;;;;;;;;;;-4.89;90.84;93067.25;1407940;40;22602;31
2021/03/08 02:44:33;;;;;;;;;;;;;;;-4.88;90.89;93069.53;1450557;39;20267;31
2021/03/08 02:45:47;;;;;;;;;;;;;;;-4.91;90.66;93069.44;1437974;39;22583;31
2021/03/08 02:46:54;;;;;;;;;;;;;;;-4.85;90.24;93070.75;1425657;39;21329;31
2021/03/08 02:48:08;;;;;;;;;;;;;;;-4.79;89.57;93066.88;1420323;39;20216;31
2021/03/08 02:49:22;;;;;;;;;;;;;;;-4.82;89.02;93070.13;1422208;39;21238;31
2021/03/08 02:50:36;;;;;;;;;;;;;;;-4.86;89.53;93074.47;1433001;39;20253;31
2021/03/08 02:51:46;;;;;;;;;;;;;;;-4.82;89.82;93070.88;1427572;39;20225;31
2021/03/08 02:53:54;;;;;;;;;;;;;;;-4.80;89.64;93067.94;1439338;39;22536;31
2021/03/08 02:55:08;;;;;;;;;;;;;;;-4.88;89.81;93069.53;1431904;39;20222;31
2021/03/08 02:56:19;;;;;;;;;;;;;;;-4.96;89.88;93059.19;1425472;39;20211;31
2021/03/08 02:57:33;;;;;;;;;;;;;;;-4.98;89.89;93066.59;1418776;39;22408;31
2021/03/08 02:58:51;;;;;;;;;;;;;;;-4.95;90.03;93071.91;1444341;39;20193;31
2021/03/08 02:59:55;;;;;;;;;;;;;;;-4.81;89.38;93074.25;1432692;39;20308;31
2021/03/08 03:01:01;;;;;;;;;;;;;;;-4.75;88.35;93065.16;1429623;39;20262;31
2021/03/08 03:02:18;;;;;;;;;;;;;;;-4.83;87.94;93065.97;1414351;39;20222;31
2021/03/08 03:06:32;;;;;;;;;;;;;;;-5.06;89.92;93068.16;1431589;39;20218;31
2021/03/08 03:07:46;;;;;;;;;;;;;;;-5.03;89.23;93064.19;1423947;39;20245;31
2021/03/08 03:09:00;;;;;;;;;;;;;;;-5.05;88.50;93072.28;1419873;39;20224;31
2021/03/08 03:13:03;;;;;;;;;;;;;;;-5.06;89.83;93081.94;1442624;39;20221;31
2021/03/08 03:14:17;;;;;;;;;;;;;;;-5.18;90.31;93086.34;1424124;39;20281;31
2021/03/08 03:15:23;;;;;;;;;;;;;;;-5.14;90.39;93079.41;1420927;39;20236;31
2021/03/08 03:16:26;;;;;;;;;;;;;;;-5.21;90.31;93079.19;1421645;39;20231;31
2021/03/08 03:17:40;;;;;;;;;;;;;;;-5.20;90.16;93078.84;1431627;39;20217;31
2021/03/08 03:18:54;;;;;;;;;;;;;;;-5.16;90.17;93077.12;1418472;39;20321;31
2021/03/08 03:20:08;;;;;;;;;;;;;;;-5.09;90.29;93076.62;1417679;39;20752;31
2021/03/08 03:22:57;;;;;;;;;;;;;;;-5.14;89.81;93069.00;1447301;39;20705;31
2021/03/08 03:37:28;;;;;;;;;;;;;;;-5.22;89.95;93082.88;1431968;39;21828;31
2021/03/08 03:38:53;;;;;;;;;;;;;;;-5.24;90.14;93077.19;1438437;39;21106;31
2021/03/08 03:43:38;;;;;;;;;;;;;;;-5.28;90.05;93090.09;1430848;39;20209;31
2021/03/08 03:51:14;;;;;;;;;;;;;;;-5.34;89.07;93086.16;1499357;39;21329;31
2021/03/08 03:52:28;;;;;;;;;;;;;;;-5.36;89.45;93083.84;1422104;39;20275;31
2021/03/08 03:58:19;;;;;;;;;;;;;;;-5.40;88.89;93088.19;1431418;39;20374;31
2021/03/08 03:59:26;;;;;;;;;;;;;;;-5.47;88.94;93084.56;1428123;39;20203;31
2021/03/08 04:03:31;;;;;;;;;;;;;;;-5.46;89.78;93093.88;1435911;39;20220;31
2021/03/08 04:04:38;;;;;;;;;;;;;;;-5.50;89.28;93091.16;1426049;39;20254;31
2021/03/08 04:07:38;;;;;;;;;;;;;;;-5.48;88.25;93096.06;1422553;39;20426;31
2021/03/08 04:08:55;;;;;;;;;;;;;;;-5.47;88.56;93089.75;1417510;39;20638;31
2021/03/08 04:10:27;;;;;;;;;;;;;;;-5.50;88.86;93096.34;1420382;39;20196;31
2021/03/08 04:13:47;;;;;;;;;;;;;;;-5.62;88.94;93097.03;1440038;39;20304;31
2021/03/08 04:16:04;;;;;;;;;;;;;;;-5.59;89.22;93093.78;1431732;39;22473;31
2021/03/08 04:28:02;;;;;;;;;;;;;;;-5.65;88.23;93097.66;1443491;39;20218;31
2021/03/08 04:29:04;;;;;;;;;;;;;;;-5.69;88.62;93093.41;1418001;39;20215;31
2021/03/08 04:31:21;;;;;;;;;;;;;;;-5.80;89.08;93095.59;1424928;39;20258;31
2021/03/08 04:34:33;;;;;;;;;;;;;;;-5.75;89.94;93102.44;1423549;39;21781;31
2021/03/08 04:41:25;;;;;;;;;;;;;;;-5.74;88.58;93090.97;1499492;39;20560;31
2021/03/08 04:48:47;;;;;;;;;;;;;;;-5.87;89.13;93096.09;1446106;39;20237;31
2021/03/08 04:51:04;;;;;;;;;;;;;;;-5.94;88.83;93095.06;1419351;39;20251;31
2021/03/08 04:52:20;;;;;;;;;;;;;;;-5.96;89.02;93098.00;1422196;39;21274;31
2021/03/08 04:53:45;;;;;;;;;;;;;;;-5.96;88.97;93097.22;1430396;39;21162;31
2021/03/08 04:56:04;;;;;;;;;;;;;;;-5.92;89.29;93098.13;1442172;39;20301;31
2021/03/08 04:57:18;;;;;;;;;;;;;;;-5.93;89.42;93094.00;1427238;39;20200;31
2021/03/08 04:58:53;;;;;;;;;;;;;;;-5.92;90.09;93093.69;1432272;39;20219;31
2021/03/08 05:00:07;;;;;;;;;;;;;;;-5.95;89.86;93094.31;1434182;39;20231;31
2021/03/08 05:01:21;;;;;;;;;;;;;;;-6.05;90.05;93091.31;1425874;39;20202;31
2021/03/08 05:02:24;;;;;;;;;;;;;;;-6.00;89.96;93096.34;1424306;39;20233;31
2021/03/08 05:05:05;;;;;;;;;;;;;;;-6.02;90.61;93094.03;1438208;39;20256;31
2021/03/08 05:06:19;;;;;;;;;;;;;;;-5.96;89.96;93097.22;1420970;39;20375;31
2021/03/08 05:07:33;;;;;;;;;;;;;;;-5.89;89.40;93094.87;1419718;39;22425;31
2021/03/08 05:09:13;;;;;;;;;;;;;;;-5.92;89.12;93095.53;1425311;39;20191;31
2021/03/08 05:10:48;;;;;;;;;;;;;;;-5.96;89.24;93098.00;1432530;39;21234;31
2021/03/08 05:12:02;;;;;;;;;;;;;;;-5.98;89.42;93096.78;1424244;39;20227;31
2021/03/08 05:13:18;;;;;;;;;;;;;;;-5.91;88.57;93097.03;1419937;39;21154;31
2021/03/08 05:15:04;;;;;;;;;;;;;;;-5.99;88.63;93103.06;1433361;39;20227;31
2021/03/08 05:16:18;;;;;;;;;;;;;;;-6.00;88.74;93104.91;1428850;39;20828;31
2021/03/08 05:20:23;;;;;;;;;;;;;;;-6.01;89.41;93098.19;1434908;39;20219;31
2021/03/08 05:21:36;;;;;;;;;;;;;;;-5.90;88.79;93103.75;1434503;39;20199;31
2021/03/08 05:22:50;;;;;;;;;;;;;;;-5.96;88.36;93107.66;1423282;39;20233;31
2021/03/08 05:24:34;;;;;;;;;;;;;;;-6.10;89.01;93107.84;1430580;39;20210;31
2021/03/08 05:25:48;;;;;;;;;;;;;;;-6.14;88.80;93110.31;1432795;39;21144;31
2021/03/08 05:27:08;;;;;;;;;;;;;;;-6.13;89.05;93109.22;1424265;39;20236;31
2021/03/08 05:30:25;;;;;;;;;;;;;;;-6.04;86.84;93111.03;1441785;39;22501;31
2021/03/08 05:31:51;;;;;;;;;;;;;;;-6.01;87.33;93105.19;1428771;39;20249;31
2021/03/08 05:35:49;;;;;;;;;;;;;;;-6.00;87.39;93104.13;1431247;39;20222;31
2021/03/08 05:36:54;;;;;;;;;;;;;;;-6.17;86.80;93110.16;1411149;39;22595;31
2021/03/08 05:42:46;;;;;;;;;;;;;;;-6.24;89.49;93108.03;1430587;39;20186;31
2021/03/08 05:44:20;;;;;;;;;;;;;;;-6.15;88.91;93113.19;1427967;39;22495;31
2021/03/08 05:49:59;;;;;;;;;;;;;;;-6.25;87.61;93109.09;1441620;39;20205;31
2021/03/08 05:51:20;;;;;;;;;;;;;;;-6.20;88.47;93121.16;1427764;39;20683;31
2021/03/08 05:52:36;;;;;;;;;;;;;;;-6.28;87.58;93106.34;1420260;39;22511;31
2021/03/08 05:53:59;;;;;;;;;;;;;;;-6.20;88.48;93115.97;1428469;39;21353;31
2021/03/08 05:55:33;;;;;;;;;;;;;;;-6.17;87.79;93113.53;1433228;39;20218;31
2021/03/08 05:58:09;;;;;;;;;;;;;;;-6.28;88.88;93117.50;1443799;39;21753;31
2021/03/08 05:59:23;;;;;;;;;;;;;;;-6.26;89.33;93115.38;1431632;39;20211;31
2021/03/08 06:00:33;;;;;;;;;;;;;;;-6.17;88.76;93117.97;1425729;39;21179;31
2021/03/08 06:01:37;;;;;;;;;;;;;;;-6.24;88.04;93115.06;1422343;39;20299;31
2021/03/08 06:04:39;;;;;;;;;;;;;;;-6.30;88.46;93119.69;1435724;39;20222;31
2021/03/08 06:07:21;;;;;;;;;;;;;;;-6.31;87.96;93118.16;1438349;39;22936;31
2021/03/08 06:09:05;;;;;;;;;;;;;;;-6.29;88.73;93118.59;1440813;39;21120;31
2021/03/08 06:10:19;;;;;;;;;;;;;;;-6.29;88.73;93110.78;1431226;39;20204;31
2021/03/08 06:11:53;;;;;;;;;;;;;;;-6.28;88.87;93120.13;1438229;39;20260;31
2021/03/08 06:13:07;;;;;;;;;;;;;;;-6.27;88.00;93121.66;1429895;39;20241;31
2021/03/08 06:14:15;;;;;;;;;;;;;;;-6.29;88.33;93125.63;1424242;39;21401;31
2021/03/08 06:15:29;;;;;;;;;;;;;;;-6.23;88.79;93124.38;1429294;39;21200;31
2021/03/08 06:16:44;;;;;;;;;;;;;;;-6.25;87.84;93127.31;1422376;39;21223;31
2021/03/08 06:20:12;;;;;;;;;;;;;;;-6.24;88.81;93125.47;1425718;39;21199;31
2021/03/08 06:22:06;;;;;;;;;;;;;;;-6.20;89.50;93132.34;1427798;39;20223;31
2021/03/08 06:25:32;;;;;;;;;;;;;;;-6.00;88.74;93130.16;1427469;39;23095;31
2021/03/08 06:26:34;;;;;;;;;;;;;;;-6.02;88.07;93134.88;1431337;39;22418;31
2021/03/08 06:36:17;;;;;;;;;;;;;;;-5.68;89.92;93139.94;1426765;39;20207;31
2021/03/08 06:37:25;;;;;;;;;;;;;;;-5.55;90.05;93145.25;1420956;39;20227;31
2021/03/08 06:38:38;;;;;;;;;;;;;;;-5.55;89.88;93151.22;1431282;39;20240;31
2021/03/08 06:39:54;;;;;;;;;;;;;;;-5.45;90.30;93152.69;1424939;39;20416;31
2021/03/08 06:41:17;;;;;;;;;;;;;;;-5.37;89.92;93154.50;1430809;39;22681;31
2021/03/08 06:49:39;;;;;;;;;;;;;;;-5.05;88.40;93150.47;1439291;39;20214;31
2021/03/08 06:50:53;;;;;;;;;;;;;;;-4.90;88.26;93162.94;1417994;39;21250;31
2021/03/08 06:52:18;;;;;;;;;;;;;;;-4.83;87.51;93162.44;1416248;39;20294;31
2021/03/08 06:53:33;;;;;;;;;;;;;;;-4.75;86.86;93169.44;1444197;39;20252;31
2021/03/08 06:55:50;;;;;;;;;;;;;;;-4.62;85.77;93165.03;1443068;39;21160;31
2021/03/08 07:00:26;;;;;;;;;;;;;;;-4.43;83.74;93170.56;1448210;39;20205;31
2021/03/08 07:01:32;;;;;;;;;;;;;;;-4.34;84.00;93171.25;1438566;39;20244;31
2021/03/08 07:03:50;;;;;;;;;;;;;;;-4.22;82.69;93175.75;1444842;39;20232;31
2021/03/08 07:05:04;;;;;;;;;;;;;;;-4.18;83.21;93179.22;1430923;39;20207;31
2021/03/08 07:06:18;;;;;;;;;;;;;;;-4.07;81.86;93182.97;1422139;39;20315;31
2021/03/08 07:07:32;;;;;;;;;;;;;;;-4.09;81.96;93184.38;1430226;39;20266;31
2021/03/08 07:08:34;;;;;;;;;;;;;;;-4.06;81.47;93173.31;1424495;39;22500;31
2021/03/08 07:09:49;;;;;;;;;;;;;;;-4.00;80.50;93168.62;1419398;39;21161;31
2021/03/08 07:11:02;;;;;;;;;;;;;;;-3.98;81.66;93174.31;1426433;39;20211;31
2021/03/08 07:12:16;;;;;;;;;;;;;;;-3.90;79.74;93181.28;1427190;39;20330;31
2021/03/08 07:13:30;;;;;;;;;;;;;;;-3.84;81.01;93174.75;1427265;39;20230;31
2021/03/08 07:14:46;;;;;;;;;;;;;;;-3.79;81.10;93169.34;1428694;39;20250;31
2021/03/08 07:16:00;;;;;;;;;;;;;;;-3.73;80.53;93172.50;1431152;39;20274;31
2021/03/08 07:17:14;;;;;;;;;;;;;;;-3.68;79.29;93178.28;1426777;39;21196;31
2021/03/08 07:18:41;;;;;;;;;;;;;;;-3.49;79.55;93177.75;1430077;39;21294;31
2021/03/08 07:22:02;;;;;;;;;;;;;;;-3.43;79.67;93180.91;1427631;39;20226;31
2021/03/08 07:24:45;;;;;;;;;;;;;;;-3.40;78.98;93183.62;1425656;39;20242;31
2021/03/08 07:26:04;;;;;;;;;;;;;;;-3.35;79.54;93190.50;1411533;40;20216;31
2021/03/08 07:27:08;;;;;;;;;;;;;;;-3.31;79.30;93186.91;1410983;40;21377;31
2021/03/08 07:28:22;;;;;;;;;;;;;;;-3.26;79.20;93185.91;1413678;39;20232;31
2021/03/08 07:29:24;;;;;;;;;;;;;;;-3.21;78.46;93183.09;1411821;40;22514;31
2021/03/08 07:33:57;;;;;;;;;;;;;;;-3.07;76.27;93182.78;1425466;39;20202;31
2021/03/08 07:35:03;;;;;;;;;;;;;;;-3.07;76.08;93177.56;1430557;39;20248;31
2021/03/08 07:36:21;;;;;;;;;;;;;;;-3.03;78.10;93183.62;1421897;39;20273;31
2021/03/08 07:38:06;;;;;;;;;;;;;;;-2.93;75.77;93193.66;1438060;39;20417;31
2021/03/08 07:39:21;;;;;;;;;;;;;;;-2.92;75.75;93189.19;1438217;39;21181;31
2021/03/08 07:40:54;;;;;;;;;;;;;;;-2.81;75.04;93188.41;1438049;39;20222;31
2021/03/08 07:41:57;;;;;;;;;;;;;;;-2.83;77.37;93182.72;1427964;39;21435;31
2021/03/08 07:43:10;;;;;;;;;;;;;;;-2.80;76.19;93184.69;1418943;39;20220;31
2021/03/08 07:44:12;;;;;;;;;;;;;;;-2.68;76.06;93186.50;1428210;39;21337;31
2021/03/08 07:45:26;;;;;;;;;;;;;;;-2.58;73.75;93182.69;1431032;39;21185;31
2021/03/08 07:48:34;;;;;;;;;;;;;;;-2.61;74.53;93191.97;1433081;39;21233;31
2021/03/08 07:49:56;;;;;;;;;;;;;;;-2.56;73.71;93196.19;1430786;39;20221;31
2021/03/08 07:51:07;;;;;;;;;;;;;;;-2.46;72.97;93198.34;1429233;39;20246;31
2021/03/08 07:52:25;;;;;;;;;;;;;;;-2.34;73.69;93200.94;1420618;39;20247;31
2021/03/08 07:53:39;;;;;;;;;;;;;;;-2.18;74.51;93195.75;1426599;39;20242;31
2021/03/08 07:54:53;;;;;;;;;;;;;;;-2.20;75.11;93199.78;1421364;39;20223;31
2021/03/08 07:56:07;;;;;;;;;;;;;;;-2.08;74.17;93192.66;1419370;39;20262;31
2021/03/08 07:57:29;;;;;;;;;;;;;;;-2.11;73.59;93193.34;1428733;39;20221;31
2021/03/08 07:58:46;;;;;;;;;;;;;;;-2.03;73.50;93189.03;1438749;39;22858;31
2021/03/08 08:00:00;;;;;;;;;;;;;;;-1.96;73.02;93193.72;1432357;39;20273;31
2021/03/08 08:01:16;;;;;;;;;;;;;;;-2.00;74.24;93191.00;1428064;39;21317;31
2021/03/08 08:03:36;;;;;;;;;;;;;;;-2.03;74.30;93200.28;1436309;39;21743;31
2021/03/08 08:04:42;;;;;;;;;;;;;;;-2.03;75.22;93197.66;1442562;39;22298;31
2021/03/08 08:05:49;;;;;;;;;;;;;;;-1.94;75.41;93194.87;1434832;39;20290;31
2021/03/08 08:08:07;;;;;;;;;;;;;;;-1.90;74.47;93200.22;1426982;39;20223;31
2021/03/08 08:09:22;;;;;;;;;;;;;;;-1.80;75.14;93194.47;1423544;39;21137;31
2021/03/08 08:10:35;;;;;;;;;;;;;;;-1.74;72.25;93195.03;1428432;39;20219;31
2021/03/08 08:11:50;;;;;;;;;;;;;;;-1.77;74.15;93207.69;1428207;39;20195;31
2021/03/08 08:13:20;;;;;;;;;;;;;;;-1.84;73.92;93198.91;1441804;39;20300;31
2021/03/08 08:14:25;;;;;;;;;;;;;;;-1.72;73.47;93195.44;1429297;39;20857;31
2021/03/08 08:17:02;;;;;;;;;;;;;;;-1.58;72.88;93198.41;1426956;39;21185;31
2021/03/08 08:18:07;;;;;;;;;;;;;;;-1.47;72.33;93196.81;1431676;39;21222;31
2021/03/08 08:21:17;;;;;;;;;;;;;;;-1.35;70.02;93196.75;1446387;39;20307;31
2021/03/08 08:22:23;;;;;;;;;;;;;;;-1.32;68.62;93196.06;1446412;39;20233;31
2021/03/08 08:23:30;;;;;;;;;;;;;;;-1.39;71.54;93195.91;1424889;39;20348;31
2021/03/08 08:24:35;;;;;;;;;;;;;;;-1.35;69.92;93190.75;1421952;39;21291;31
2021/03/08 08:25:38;;;;;;;;;;;;;;;-1.34;70.42;93198.25;1428688;39;20245;31
2021/03/08 08:27:57;;;;;;;;;;;;;;;-1.35;71.51;93202.00;1444111;39;20242;31
2021/03/08 08:29:01;;;;;;;;;;;;;;;-1.32;70.78;93201.31;1435863;39;20229;31
2021/03/08 08:30:04;;;;;;;;;;;;;;;-1.33;70.78;93196.41;1425636;39;20249;31
2021/03/08 08:33:25;;;;;;;;;;;;;;;-1.19;69.78;93199.34;1442947;39;21113;31
2021/03/08 08:34:30;;;;;;;;;;;;;;;-1.05;68.71;93202.31;1432485;39;20227;31
2021/03/08 08:35:44;;;;;;;;;;;;;;;-1.06;69.54;93198.16;1419644;39;20225;31
2021/03/08 08:36:59;;;;;;;;;;;;;;;-1.15;66.12;93200.19;1430796;39;20395;31
2021/03/08 08:38:06;;;;;;;;;;;;;;;-1.16;65.59;93192.69;1420430;39;22327;31
2021/03/08 08:39:09;;;;;;;;;;;;;;;-1.24;68.06;93190.97;1408243;39;20290;31
2021/03/08 08:40:14;;;;;;;;;;;;;;;-1.13;66.31;93198.00;1432247;39;20222;31
2021/03/08 08:42:34;;;;;;;;;;;;;;;-0.97;68.41;93194.59;1447844;39;20241;31
2021/03/08 08:43:48;;;;;;;;;;;;;;;-0.67;65.11;93197.50;1426975;39;20231;31
2021/03/08 08:45:02;;;;;;;;;;;;;;;-0.65;66.92;93190.06;1424437;39;20198;31
2021/03/08 08:46:23;;;;;;;;;;;;;;;-0.73;63.05;93199.66;1428884;39;22492;31
2021/03/08 08:49:47;;;;;;;;;;;;;;;-0.42;62.35;93198.03;1434089;39;20652;31
2021/03/08 08:50:51;;;;;;;;;;;;;;;-0.46;64.85;93195.34;1425253;39;22775;31
2021/03/08 08:51:59;;;;;;;;;;;;;;;-0.40;64.93;93195.81;1422099;39;20219;31
2021/03/08 08:53:04;;;;;;;;;;;;;;;-0.43;65.51;93197.28;1415424;39;21107;31
2021/03/08 08:54:17;;;;;;;;;;;;;;;-0.33;64.42;93201.22;1417305;39;20317;31
2021/03/08 08:55:21;;;;;;;;;;;;;;;-0.33;65.13;93204.59;1431344;39;20218;31
2021/03/08 08:56:43;;;;;;;;;;;;;;;-0.19;65.87;93195.50;1432709;39;20234;31
2021/03/08 08:57:57;;;;;;;;;;;;;;;-0.16;65.82;93200.81;1393932;39;21192;31
2021/03/08 09:00:21;;;;;;;;;;;;;;;-0.05;65.52;93201.00;1438653;39;34369;31
2021/03/08 09:02:31;;;;;;;;;;;;;;;-0.15;64.00;93199.72;1427218;39;20239;31
2021/03/08 09:03:49;;;;;;;;;;;;;;;-0.08;66.10;93204.34;1230998;39;21361;31
2021/03/08 09:04:51;;;;;;;;;;;;;;;-0.05;66.29;93190.50;1437422;39;20273;31
2021/03/08 09:05:55;;;;;;;;;;;;;;;-0.04;65.54;93197.31;1435999;39;20279;31
2021/03/08 09:07:02;;;;;;;;;;;;;;;0.03;66.45;93200.06;1337723;39;20261;31
2021/03/08 09:08:18;;;;;;;;;;;;;;;0.14;66.16;93200.25;1322038;39;20227;31
2021/03/08 09:10:33;;;;;;;;;;;;;;;0.26;63.95;93202.72;1298410;39;20238;-87
2021/03/08 09:11:57;;;;;;;;;;;;;;;0.31;64.88;93197.19;1347173;39;20258;31
2021/03/08 09:13:08;;;;;;;;;;;;;;;0.31;65.95;93196.41;1426619;39;20105;31
2021/03/08 09:14:27;;;;;;;;;;;;;;;0.37;64.58;93195.81;1432269;39;21810;31
2021/03/08 09:15:30;;;;;;;;;;;;;;;0.28;65.34;93197.91;1416217;39;20298;31
2021/03/08 09:17:48;;;;;;;;;;;;;;;0.40;64.73;93196.97;1435213;39;20338;31
2021/03/08 09:18:49;;;;;;;;;;;;;;;0.48;64.33;93201.22;1433862;39;20293;31
2021/03/08 09:21:14;;;;;;;;;;;;;;;0.60;63.07;93197.69;1447177;39;21148;31
2021/03/08 09:22:24;;;;;;;;;;;;;;;0.64;61.71;93191.38;1046202;49;20867;-86
2021/03/08 09:23:25;;;;;;;;;;;;;;;0.75;60.05;93194.94;1040141;57;20214;-85
2021/03/08 09:24:29;;;;;;;;;;;;;;;0.85;59.41;93184.94;1037312;57;20185;-85